createdAt,value
2023-10-23T00:18:56.203Z,9.42
2023-10-23T00:34:01.454Z,9.32
2023-10-23T00:54:08.557Z,9.3
2023-10-23T00:59:10.109Z,9.28
2023-10-23T01:09:12.973Z,9.18
2023-10-23T01:34:20.930Z,9.12
2023-10-23T01:39:22.579Z,9.09
2023-10-23T01:49:25.649Z,9.02
2023-10-23T01:54:27.223Z,9
2023-10-23T01:59:29.096Z,8.97
2023-10-23T02:04:30.918Z,8.84
2023-10-23T02:09:32.500Z,8.87
2023-10-23T02:14:34.115Z,8.81
2023-10-23T02:19:36.008Z,8.72
2023-10-23T02:24:37.565Z,8.63
2023-10-23T02:29:38.652Z,8.64
2023-10-23T02:34:40.699Z,8.62
2023-10-23T02:39:42.662Z,8.55
2023-10-23T02:44:44.533Z,8.55
2023-10-23T02:49:46.110Z,8.53
2023-10-23T02:54:47.856Z,8.49
2023-10-23T02:59:49.658Z,8.38
2023-10-23T03:04:51.590Z,8.37
2023-10-23T03:09:53.599Z,8.31
2023-10-23T03:14:54.989Z,8.28
2023-10-23T03:19:56.557Z,8.2
2023-10-23T03:24:58.633Z,8.28
2023-10-23T03:30:00.028Z,8.26
2023-10-23T03:35:01.624Z,8.2
2023-10-23T03:40:03.265Z,8.12
2023-10-23T03:45:04.831Z,8.17
2023-10-23T03:50:06.225Z,8.13
2023-10-23T03:55:08.086Z,8.05
2023-10-23T04:00:09.329Z,7.96
2023-10-23T04:05:11.008Z,7.98
2023-10-23T04:10:12.479Z,7.92
2023-10-23T04:15:13.996Z,7.82
2023-10-23T04:20:15.394Z,7.79
2023-10-23T04:25:16.931Z,7.78
2023-10-23T04:30:18.331Z,7.74
2023-10-23T04:35:20.106Z,7.66
2023-10-23T04:40:21.472Z,7.62
2023-10-23T04:45:22.967Z,7.61
2023-10-23T04:50:25.121Z,7.59
2023-10-23T04:55:26.249Z,7.51
2023-10-23T05:00:27.457Z,7.55
2023-10-23T05:05:29.237Z,7.52
2023-10-23T05:10:31.028Z,7.49
2023-10-23T05:15:32.790Z,7.41
2023-10-23T05:20:34.490Z,7.45
2023-10-23T05:25:35.804Z,7.44
2023-10-23T05:30:37.446Z,7.38
2023-10-23T05:35:39.533Z,7.33
2023-10-23T05:40:41.227Z,7.36
2023-10-23T05:45:42.733Z,7.35
2023-10-23T05:50:44.110Z,7.33
2023-10-23T05:55:45.650Z,7.28
2023-10-23T06:00:47.911Z,7.33
2023-10-23T06:05:49.512Z,7.35
2023-10-23T06:10:51.273Z,7.34
2023-10-23T06:15:52.687Z,7.34
2023-10-23T06:20:54.326Z,7.43
2023-10-23T06:25:55.960Z,7.48
2023-10-23T06:30:57.329Z,7.49
2023-10-23T06:35:59.196Z,7.58
2023-10-23T06:41:00.426Z,7.67
2023-10-23T06:46:03.069Z,7.78
2023-10-23T06:51:03.673Z,7.83
2023-10-23T06:56:05.078Z,7.96
2023-10-23T07:01:07.189Z,8.16
2023-10-23T07:06:08.618Z,8.37
2023-10-23T07:11:09.880Z,8.52
2023-10-23T07:16:12.071Z,8.74
2023-10-23T07:21:15.625Z,8.93
2023-10-23T07:26:15.213Z,9.17
2023-10-23T07:31:17.271Z,9.35
2023-10-23T07:36:18.566Z,9.6
2023-10-23T07:41:19.956Z,9.83
2023-10-23T07:46:21.677Z,10.12
2023-10-23T07:51:22.875Z,10.41
2023-10-23T07:56:24.335Z,10.77
2023-10-23T08:01:25.698Z,11.02
2023-10-23T08:06:27.336Z,11.1
2023-10-23T08:11:28.597Z,11.26
2023-10-23T08:16:30.107Z,11.38
2023-10-23T08:21:31.559Z,11.48
2023-10-23T08:26:33.120Z,11.5
2023-10-23T08:31:39.652Z,11.66
2023-10-23T08:36:36.812Z,11.88
2023-10-23T08:41:41.180Z,12.19
2023-10-23T08:46:40.124Z,12.44
2023-10-23T08:51:41.558Z,13.01
2023-10-23T08:56:43.489Z,13.31
2023-10-23T09:01:45.196Z,14.12
2023-10-23T09:06:46.475Z,14.34
2023-10-23T09:11:48.413Z,14.76
2023-10-23T09:16:50.049Z,15.31
2023-10-23T09:21:51.576Z,16.24
2023-10-23T09:26:53.176Z,16.99
2023-10-23T09:31:55.341Z,18.18
2023-10-23T09:36:57.643Z,19.65
2023-10-23T09:41:59.219Z,20.35
2023-10-23T09:47:01.004Z,20.45
2023-10-23T09:52:02.737Z,20.61
2023-10-23T09:57:04.357Z,21.03
2023-10-23T10:02:06.252Z,19.94
2023-10-23T10:07:08.284Z,19.37
2023-10-23T10:12:09.658Z,19.28
2023-10-23T10:17:10.784Z,19.35
2023-10-23T10:22:12.232Z,18.85
2023-10-23T10:27:13.449Z,18.77
2023-10-23T10:32:14.801Z,18.86
2023-10-23T10:37:25.621Z,19.43
2023-10-23T10:42:18.629Z,19.42
2023-10-23T10:47:19.972Z,19.83
2023-10-23T10:52:21.346Z,19.71
2023-10-23T10:57:22.954Z,19.09
2023-10-23T11:02:24.903Z,19
2023-10-23T11:07:26.568Z,18.93
2023-10-23T11:12:27.882Z,18.7
2023-10-23T11:17:29.216Z,18
2023-10-23T11:22:31.010Z,17.75
2023-10-23T11:27:32.360Z,17.53
2023-10-23T11:32:34.464Z,17.43
2023-10-23T11:37:36.560Z,17.18
2023-10-23T11:42:37.844Z,17.11
2023-10-23T11:47:39.378Z,16.95
2023-10-23T11:52:40.802Z,16.69
2023-10-23T11:57:42.638Z,16.6
2023-10-23T12:02:43.978Z,16.41
2023-10-23T12:07:45.353Z,16.31
2023-10-23T12:12:46.572Z,16.21
2023-10-23T12:17:48.061Z,16.18
2023-10-23T12:22:50.055Z,16.29
2023-10-23T12:27:51.621Z,16.37
2023-10-23T12:33:12.343Z,16.34
2023-10-23T12:37:55.543Z,16.2
2023-10-23T12:42:57.547Z,16
2023-10-23T12:47:58.946Z,15.78
2023-10-23T12:53:00.912Z,15.83
2023-10-23T12:58:02.598Z,15.89
2023-10-23T13:03:04.022Z,15.99
2023-10-23T13:08:06.089Z,16.01
2023-10-23T13:13:07.809Z,16.14
2023-10-23T13:18:09.216Z,16.26
2023-10-23T13:23:10.338Z,16.18
2023-10-23T13:28:11.601Z,16.04
2023-10-23T13:33:13.500Z,16.15
2023-10-23T13:38:15.570Z,16.2
2023-10-23T13:43:17.429Z,16.1
2023-10-23T13:48:18.596Z,16.12
2023-10-23T13:53:20.635Z,16.16
2023-10-23T13:58:22.817Z,16.2
2023-10-23T14:18:28.828Z,15.83
2023-10-23T14:23:30.304Z,15.79
2023-10-23T15:08:44.866Z,15.47
2023-10-23T15:18:47.893Z,15.27
2023-10-23T15:28:51.194Z,15.22
2023-10-23T16:09:13.539Z,14.71
2023-10-23T16:54:24.975Z,14.06
2023-10-23T16:59:28.648Z,14.04
2023-10-23T17:04:28.508Z,13.85
2023-10-23T17:09:29.987Z,13.82
2023-10-23T17:14:31.303Z,13.82
2023-10-23T17:19:32.926Z,13.76
2023-10-23T17:24:34.996Z,13.65
2023-10-23T17:29:36.635Z,13.6
2023-10-23T17:34:38.440Z,13.59
2023-10-23T17:39:40.529Z,13.5
2023-10-23T17:44:42.007Z,13.37
2023-10-23T17:49:43.662Z,13.36
2023-10-23T17:54:45.188Z,13.36
2023-10-23T17:59:46.609Z,13.23
2023-10-23T18:04:48.623Z,13.16
2023-10-23T18:09:50.096Z,13.16
2023-10-23T18:14:52.216Z,13.09
2023-10-23T18:19:53.673Z,12.85
2023-10-23T18:24:55.143Z,12.82
2023-10-23T18:29:57.094Z,12.8
2023-10-23T18:34:59.100Z,12.75
2023-10-23T18:40:01.151Z,12.63
2023-10-23T18:45:03.016Z,12.61
2023-10-23T18:50:04.740Z,12.58
2023-10-23T18:55:05.923Z,12.53
2023-10-23T19:00:07.414Z,12.43
2023-10-23T19:05:09.180Z,12.42
2023-10-23T19:10:11.263Z,12.39
2023-10-23T19:15:12.722Z,12.3
2023-10-23T19:20:14.685Z,12.23
2023-10-23T19:25:16.783Z,12.21
2023-10-23T19:30:18.217Z,12.16
2023-10-23T19:35:19.907Z,12.02
2023-10-23T19:40:21.747Z,12.01
2023-10-23T19:45:23.675Z,11.99
2023-10-23T19:50:25.220Z,11.97
2023-10-23T19:55:44.040Z,11.83
2023-10-23T20:00:28.582Z,11.86
2023-10-23T20:05:30.497Z,11.83
2023-10-23T20:10:32.441Z,11.79
2023-10-23T20:15:34.206Z,11.76
2023-10-23T20:20:36.128Z,11.79
2023-10-23T20:25:38.083Z,11.84
2023-10-23T20:30:39.897Z,11.8
2023-10-23T20:35:43.886Z,11.85
2023-10-23T20:40:43.918Z,11.83
2023-10-23T20:45:46.071Z,11.83
2023-10-23T20:50:47.635Z,11.74
2023-10-23T20:55:48.827Z,11.79
2023-10-23T21:00:50.261Z,11.8
2023-10-23T21:05:51.910Z,11.75
2023-10-23T21:10:53.839Z,11.74
2023-10-23T21:15:55.567Z,11.71
2023-10-23T21:20:57.551Z,11.68
2023-10-23T21:25:58.811Z,11.58
2023-10-23T21:31:00.564Z,11.6
2023-10-23T21:36:01.816Z,11.58
2023-10-23T21:41:03.537Z,11.48
2023-10-23T21:46:16.422Z,11.46
2023-10-23T21:51:06.718Z,11.46
2023-10-23T21:56:08.203Z,11.44
2023-10-23T22:01:10.087Z,11.33
2023-10-23T22:06:11.810Z,11.38
2023-10-23T22:11:13.042Z,11.38
2023-10-23T22:16:14.377Z,11.32
2023-10-23T22:21:16.309Z,11.32
2023-10-23T22:26:17.917Z,11.35
2023-10-23T22:31:19.689Z,11.36
2023-10-23T22:36:21.806Z,11.33
2023-10-23T22:41:23.559Z,11.39
2023-10-23T22:46:24.913Z,11.41
2023-10-23T22:51:26.548Z,11.35
2023-10-23T22:56:27.764Z,11.36
2023-10-23T23:01:29.699Z,11.38
2023-10-23T23:06:31.529Z,11.41
2023-10-23T23:11:32.805Z,11.31
2023-10-23T23:16:34.817Z,11.39
2023-10-23T23:21:36.480Z,11.36
2023-10-23T23:26:37.628Z,11.33
2023-10-23T23:31:39.349Z,11.31
2023-10-23T23:36:41.357Z,11.29
2023-10-23T23:41:42.647Z,11.29
2023-10-23T23:46:44.792Z,11.21
2023-10-23T23:51:46.845Z,11.22
2023-10-23T23:56:48.520Z,11.2
